sensor_id;sensor_type;location;lat;lon;timestamp;pressure;altitude;pressure_sealevel;temperature;humidity
38530;BME280;24301;54.332;48.386;2022-09-27T00:00:34;98774.78;;;7.83;81.07
38530;BME280;24301;54.332;48.386;2022-09-27T00:03:00;98778.25;;;7.85;80.85
38530;BME280;24301;54.332;48.386;2022-09-27T00:05:27;98776.47;;;7.89;80.81
38530;BME280;24301;54.332;48.386;2022-09-27T00:07:53;98781.66;;;7.94;81.09
38530;BME280;24301;54.332;48.386;2022-09-27T00:10:19;98785.13;;;7.94;80.62
38530;BME280;24301;54.332;48.386;2022-09-27T00:12:45;98782.53;;;7.94;80.65
38530;BME280;24301;54.332;48.386;2022-09-27T00:15:12;98778.16;;;7.95;80.79
38530;BME280;24301;54.332;48.386;2022-09-27T00:17:39;98773.78;;;7.95;80.96
38530;BME280;24301;54.332;48.386;2022-09-27T00:20:06;98770.31;;;7.93;80.95
38530;BME280;24301;54.332;48.386;2022-09-27T00:22:33;98777.28;;;8.00;80.42
38530;BME280;24301;54.332;48.386;2022-09-27T00:24:58;98782.47;;;8.03;80.56
38530;BME280;24301;54.332;48.386;2022-09-27T00:27:25;98785.94;;;8.05;80.50
38530;BME280;24301;54.332;48.386;2022-09-27T00:29:52;98785.91;;;8.12;81.01
38530;BME280;24301;54.332;48.386;2022-09-27T00:32:18;98796.31;;;8.18;80.52
38530;BME280;24301;54.332;48.386;2022-09-27T00:34:44;98793.69;;;8.21;80.54
38530;BME280;24301;54.332;48.386;2022-09-27T00:37:10;98791.97;;;8.18;80.22
38530;BME280;24301;54.332;48.386;2022-09-27T00:39:38;98788.47;;;8.19;80.33
38530;BME280;24301;54.332;48.386;2022-09-27T00:42:05;98794.59;;;8.14;80.19
38530;BME280;24301;54.332;48.386;2022-09-27T00:47:24;98797.19;;;8.18;80.30
38530;BME280;24301;54.332;48.386;2022-09-27T00:50:11;98811.13;;;8.25;80.61
38530;BME280;24301;54.332;48.386;2022-09-27T00:55:30;98810.25;;;8.20;80.37
38530;BME280;24301;54.332;48.386;2022-09-27T00:57:58;98805.06;;;8.18;80.55
38530;BME280;24301;54.332;48.386;2022-09-27T01:00:24;98810.31;;;8.14;80.52
38530;BME280;24301;54.332;48.386;2022-09-27T01:02:52;98811.19;;;8.14;80.81
38530;BME280;24301;54.332;48.386;2022-09-27T01:05:21;98815.53;;;8.14;81.03
38530;BME280;24301;54.332;48.386;2022-09-27T01:07:49;98813.81;;;8.13;81.19
38530;BME280;24301;54.332;48.386;2022-09-27T01:10:16;98826.00;;;8.17;81.45
38530;BME280;24301;54.332;48.386;2022-09-27T01:18:33;98829.41;;;8.31;81.45
38530;BME280;24301;54.332;48.386;2022-09-27T01:32:19;98838.13;;;8.29;81.15
38530;BME280;24301;54.332;48.386;2022-09-27T01:46:20;98871.34;;;8.19;81.45
38530;BME280;24301;54.332;48.386;2022-09-27T01:49:23;98865.28;;;8.17;81.45
38530;BME280;24301;54.332;48.386;2022-09-27T01:51:56;98873.13;;;8.17;81.64
38530;BME280;24301;54.332;48.386;2022-09-27T01:54:29;98872.28;;;8.15;81.93
38530;BME280;24301;54.332;48.386;2022-09-27T01:57:18;98873.13;;;8.17;81.97
38530;BME280;24301;54.332;48.386;2022-09-27T01:59:49;98868.78;;;8.13;81.90
38530;BME280;24301;54.332;48.386;2022-09-27T02:02:58;98878.34;;;8.17;82.50
38530;BME280;24301;54.332;48.386;2022-09-27T02:05:56;98877.50;;;8.16;81.97
38530;BME280;24301;54.332;48.386;2022-09-27T02:09:22;98884.47;;;8.16;81.99
38530;BME280;24301;54.332;48.386;2022-09-27T02:12:10;98894.91;;;8.24;81.95
38530;BME280;24301;54.332;48.386;2022-09-27T02:14:57;98890.56;;;8.24;82.11
38530;BME280;24301;54.332;48.386;2022-09-27T02:25:30;98910.56;;;8.30;82.37
38530;BME280;24301;54.332;48.386;2022-09-27T02:31:23;98908.03;;;8.22;81.86
38530;BME280;24301;54.332;48.386;2022-09-27T02:33:58;98908.88;;;8.23;81.96
38530;BME280;24301;54.332;48.386;2022-09-27T02:36:25;98917.63;;;8.22;82.00
38530;BME280;24301;54.332;48.386;2022-09-27T02:38:51;98916.75;;;8.19;82.23
38530;BME280;24301;54.332;48.386;2022-09-27T02:41:20;98913.31;;;8.10;81.89
38530;BME280;24301;54.332;48.386;2022-09-27T02:43:49;98913.38;;;8.03;82.04
38530;BME280;24301;54.332;48.386;2022-09-27T02:53:14;98930.84;;;7.95;82.51
38530;BME280;24301;54.332;48.386;2022-09-27T02:56:08;98932.63;;;7.88;82.46
38530;BME280;24301;54.332;48.386;2022-09-27T02:59:13;98932.59;;;7.93;82.76
38530;BME280;24301;54.332;48.386;2022-09-27T03:04:54;98934.38;;;7.89;82.91
38530;BME280;24301;54.332;48.386;2022-09-27T03:07:21;98926.56;;;7.79;83.01
38530;BME280;24301;54.332;48.386;2022-09-27T03:09:51;98942.25;;;7.86;83.36
38530;BME280;24301;54.332;48.386;2022-09-27T03:12:18;98949.19;;;7.94;83.54
38530;BME280;24301;54.332;48.386;2022-09-27T03:14:48;98950.00;;;8.03;83.78
38530;BME280;24301;54.332;48.386;2022-09-27T03:17:52;98936.88;;;8.08;83.48
38530;BME280;24301;54.332;48.386;2022-09-27T03:20:44;98944.66;;;8.24;83.10
38530;BME280;24301;54.332;48.386;2022-09-27T03:23:13;98953.38;;;8.27;82.81
38530;BME280;24301;54.332;48.386;2022-09-27T03:25:39;98947.22;;;8.33;83.00
38530;BME280;24301;54.332;48.386;2022-09-27T03:28:07;98953.31;;;8.41;82.87
38530;BME280;24301;54.332;48.386;2022-09-27T03:30:34;98953.25;;;8.46;82.73
38530;BME280;24301;54.332;48.386;2022-09-27T03:33:00;98960.25;;;8.53;82.54
38530;BME280;24301;54.332;48.386;2022-09-27T03:35:48;98956.66;;;8.63;82.28
38530;BME280;24301;54.332;48.386;2022-09-27T03:38:14;98954.06;;;8.65;82.04
38530;BME280;24301;54.332;48.386;2022-09-27T03:40:41;98952.25;;;8.72;81.91
38530;BME280;24301;54.332;48.386;2022-09-27T03:43:08;98963.53;;;8.79;81.66
38530;BME280;24301;54.332;48.386;2022-09-27T03:45:33;98964.41;;;8.82;81.21
38530;BME280;24301;54.332;48.386;2022-09-27T03:48:03;98965.22;;;8.87;80.94
38530;BME280;24301;54.332;48.386;2022-09-27T03:50:29;98959.97;;;8.90;80.98
38530;BME280;24301;54.332;48.386;2022-09-27T03:52:55;98959.97;;;8.90;80.47
38530;BME280;24301;54.332;48.386;2022-09-27T03:55:22;98961.66;;;8.95;80.76
38530;BME280;24301;54.332;48.386;2022-09-27T03:57:48;98966.00;;;9.00;80.73
38530;BME280;24301;54.332;48.386;2022-09-27T04:00:15;98965.09;;;9.06;80.29
38530;BME280;24301;54.332;48.386;2022-09-27T04:02:42;98962.44;;;9.09;79.99
38530;BME280;24301;54.332;48.386;2022-09-27T04:05:34;98970.31;;;9.09;79.67
38530;BME280;24301;54.332;48.386;2022-09-27T04:08:11;98976.34;;;9.17;79.59
38530;BME280;24301;54.332;48.386;2022-09-27T04:10:37;98977.22;;;9.16;79.33
38530;BME280;24301;54.332;48.386;2022-09-27T04:13:13;98972.03;;;9.10;79.16
38530;BME280;24301;54.332;48.386;2022-09-27T04:15:52;98975.53;;;9.12;79.22
38530;BME280;24301;54.332;48.386;2022-09-27T04:18:57;98989.41;;;9.25;79.54
38530;BME280;24301;54.332;48.386;2022-09-27T04:21:44;98986.59;;;9.42;78.83
38530;BME280;24301;54.332;48.386;2022-09-27T04:24:11;98988.25;;;9.56;78.56
38530;BME280;24301;54.332;48.386;2022-09-27T04:26:41;98993.34;;;9.70;78.25
38530;BME280;24301;54.332;48.386;2022-09-27T04:29:12;98978.38;;;9.80;77.66
38530;BME280;24301;54.332;48.386;2022-09-27T04:31:45;98986.94;;;9.94;77.30
38530;BME280;24301;54.332;48.386;2022-09-27T04:34:30;98990.16;;;10.18;76.92
38530;BME280;24301;54.332;48.386;2022-09-27T04:37:21;98991.75;;;10.31;76.02
38530;BME280;24301;54.332;48.386;2022-09-27T04:39:49;98996.84;;;10.44;75.76
38530;BME280;24301;54.332;48.386;2022-09-27T04:42:15;99001.69;;;10.73;75.03
38530;BME280;24301;54.332;48.386;2022-09-27T04:44:42;99000.25;;;11.12;74.38
38530;BME280;24301;54.332;48.386;2022-09-27T04:47:07;99002.22;;;11.50;73.03
38530;BME280;24301;54.332;48.386;2022-09-27T04:49:33;99003.44;;;11.79;72.30
38530;BME280;24301;54.332;48.386;2022-09-27T04:52:00;99003.06;;;11.98;71.43
38530;BME280;24301;54.332;48.386;2022-09-27T04:54:26;99004.75;;;12.04;70.42
38530;BME280;24301;54.332;48.386;2022-09-27T04:57:10;99011.47;;;12.19;70.15
38530;BME280;24301;54.332;48.386;2022-09-27T04:59:38;99007.72;;;12.31;69.39
38530;BME280;24301;54.332;48.386;2022-09-27T05:02:06;99005.59;;;12.48;68.72
38530;BME280;24301;54.332;48.386;2022-09-27T05:04:55;98998.97;;;13.42;67.12
38530;BME280;24301;54.332;48.386;2022-09-27T05:07:32;98996.38;;;15.49;62.92
38530;BME280;24301;54.332;48.386;2022-09-27T05:10:03;99003.78;;;16.63;58.38
38530;BME280;24301;54.332;48.386;2022-09-27T05:12:29;99004.69;;;17.72;55.63
38530;BME280;24301;54.332;48.386;2022-09-27T05:14:57;98999.56;;;20.10;51.02
38530;BME280;24301;54.332;48.386;2022-09-27T05:17:42;99007.38;;;23.31;44.85
38530;BME280;24301;54.332;48.386;2022-09-27T05:20:36;99004.91;;;26.15;39.72
38530;BME280;24301;54.332;48.386;2022-09-27T05:23:09;99008.47;;;28.34;38.29
38530;BME280;24301;54.332;48.386;2022-09-27T05:25:35;99003.13;;;29.24;34.46
38530;BME280;24301;54.332;48.386;2022-09-27T05:28:01;98994.88;;;30.32;31.24
38530;BME280;24301;54.332;48.386;2022-09-27T05:30:27;99003.97;;;31.15;28.35
38530;BME280;24301;54.332;48.386;2022-09-27T05:33:03;99008.38;;;32.15;26.71
38530;BME280;24301;54.332;48.386;2022-09-27T05:35:58;99021.84;;;33.11;24.68
38530;BME280;24301;54.332;48.386;2022-09-27T05:38:28;99023.31;;;33.57;23.60
38530;BME280;24301;54.332;48.386;2022-09-27T05:40:56;99015.72;;;34.33;22.50
38530;BME280;24301;54.332;48.386;2022-09-27T05:43:23;99025.66;;;34.97;21.30
38530;BME280;24301;54.332;48.386;2022-09-27T05:45:50;99027.25;;;34.84;20.87
38530;BME280;24301;54.332;48.386;2022-09-27T05:48:19;99030.56;;;35.10;20.40
38530;BME280;24301;54.332;48.386;2022-09-27T05:51:05;99045.56;;;35.61;19.69
38530;BME280;24301;54.332;48.386;2022-09-27T05:53:33;99036.56;;;35.76;19.47
38530;BME280;24301;54.332;48.386;2022-09-27T05:56:05;99046.22;;;35.40;18.86
38530;BME280;24301;54.332;48.386;2022-09-27T05:58:51;99042.38;;;34.94;19.23
38530;BME280;24301;54.332;48.386;2022-09-27T06:01:18;99047.56;;;33.25;20.07
38530;BME280;24301;54.332;48.386;2022-09-27T06:04:02;99047.19;;;31.27;21.54
38530;BME280;24301;54.332;48.386;2022-09-27T06:06:48;99043.28;;;31.65;21.67
38530;BME280;24301;54.332;48.386;2022-09-27T06:09:16;99049.56;;;32.63;20.81
38530;BME280;24301;54.332;48.386;2022-09-27T06:11:43;99051.69;;;34.77;19.24
38530;BME280;24301;54.332;48.386;2022-09-27T06:14:12;99056.28;;;34.12;18.81
38530;BME280;24301;54.332;48.386;2022-09-27T06:16:50;99060.28;;;31.31;20.74
38530;BME280;24301;54.332;48.386;2022-09-27T06:19:22;99057.44;;;28.91;23.02
38530;BME280;24301;54.332;48.386;2022-09-27T06:21:49;99060.41;;;26.86;25.17
38530;BME280;24301;54.332;48.386;2022-09-27T06:24:15;99068.41;;;25.21;27.02
38530;BME280;24301;54.332;48.386;2022-09-27T06:26:42;99071.38;;;25.30;27.64
38530;BME280;24301;54.332;48.386;2022-09-27T06:29:32;99065.03;;;29.17;24.21
38530;BME280;24301;54.332;48.386;2022-09-27T06:32:01;99071.75;;;30.59;22.29
38530;BME280;24301;54.332;48.386;2022-09-27T06:34:50;99058.38;;;29.21;22.51
38530;BME280;24301;54.332;48.386;2022-09-27T06:37:16;99072.19;;;29.18;22.87
38530;BME280;24301;54.332;48.386;2022-09-27T06:39:42;99077.00;;;29.05;22.28
38530;BME280;24301;54.332;48.386;2022-09-27T06:42:31;99073.59;;;26.43;24.56
38530;BME280;24301;54.332;48.386;2022-09-27T06:45:18;99073.59;;;24.09;26.75
38530;BME280;24301;54.332;48.386;2022-09-27T06:48:14;99082.38;;;23.03;28.53
38530;BME280;24301;54.332;48.386;2022-09-27T06:50:53;99076.00;;;22.77;28.76
38530;BME280;24301;54.332;48.386;2022-09-27T06:53:20;99068.84;;;22.63;29.81
38530;BME280;24301;54.332;48.386;2022-09-27T06:55:46;99066.25;;;23.32;29.05
38530;BME280;24301;54.332;48.386;2022-09-27T06:58:12;99072.59;;;23.85;28.74
38530;BME280;24301;54.332;48.386;2022-09-27T07:01:15;99076.50;;;24.19;28.31
38530;BME280;24301;54.332;48.386;2022-09-27T07:04:00;99075.03;;;23.34;28.81
38530;BME280;24301;54.332;48.386;2022-09-27T07:06:40;99079.19;;;21.95;30.65
38530;BME280;24301;54.332;48.386;2022-09-27T07:09:28;99071.13;;;20.70;32.59
38530;BME280;24301;54.332;48.386;2022-09-27T07:11:54;99068.91;;;19.75;34.25
38530;BME280;24301;54.332;48.386;2022-09-27T07:14:20;99077.34;;;19.12;35.49
38530;BME280;24301;54.332;48.386;2022-09-27T07:16:47;99072.59;;;18.61;36.53
38530;BME280;24301;54.332;48.386;2022-09-27T07:19:13;99080.16;;;18.30;37.10
38530;BME280;24301;54.332;48.386;2022-09-27T07:21:40;99081.50;;;17.99;37.61
38530;BME280;24301;54.332;48.386;2022-09-27T07:24:06;99084.41;;;17.72;38.24
38530;BME280;24301;54.332;48.386;2022-09-27T07:26:32;99083.19;;;17.79;38.69
38530;BME280;24301;54.332;48.386;2022-09-27T07:28:58;99082.63;;;17.93;38.46
38530;BME280;24301;54.332;48.386;2022-09-27T07:31:27;99086.66;;;18.44;38.08
38530;BME280;24301;54.332;48.386;2022-09-27T07:33:54;99091.75;;;18.88;37.28
38530;BME280;24301;54.332;48.386;2022-09-27T07:36:20;99095.16;;;19.11;37.20
38530;BME280;24301;54.332;48.386;2022-09-27T07:38:46;99094.28;;;19.47;36.70
38530;BME280;24301;54.332;48.386;2022-09-27T07:41:14;99065.25;;;19.23;36.73
38530;BME280;24301;54.332;48.386;2022-09-27T07:43:41;99095.13;;;20.70;35.59
38530;BME280;24301;54.332;48.386;2022-09-27T07:46:08;99084.78;;;24.03;31.68
38530;BME280;24301;54.332;48.386;2022-09-27T07:48:44;99087.16;;;27.21;28.07
38530;BME280;24301;54.332;48.386;2022-09-27T07:51:34;99074.59;;;28.71;24.69
38530;BME280;24301;54.332;48.386;2022-09-27T07:54:06;99087.31;;;29.90;23.84
38530;BME280;24301;54.332;48.386;2022-09-27T07:56:52;99095.97;;;31.08;22.53
38530;BME280;24301;54.332;48.386;2022-09-27T07:59:20;99097.06;;;31.80;21.33
38530;BME280;24301;54.332;48.386;2022-09-27T08:01:46;99109.84;;;31.51;21.51
38530;BME280;24301;54.332;48.386;2022-09-27T08:04:12;99104.97;;;30.14;22.20
38530;BME280;24301;54.332;48.386;2022-09-27T08:06:38;99095.03;;;28.11;23.08
38530;BME280;24301;54.332;48.386;2022-09-27T08:09:07;99103.41;;;25.81;23.96
38530;BME280;24301;54.332;48.386;2022-09-27T08:11:35;99105.34;;;23.49;26.23
38530;BME280;24301;54.332;48.386;2022-09-27T08:14:03;99101.38;;;21.50;28.35
38530;BME280;24301;54.332;48.386;2022-09-27T08:16:34;99106.56;;;19.87;30.59
38530;BME280;24301;54.332;48.386;2022-09-27T08:19:18;99105.00;;;19.09;32.37
38530;BME280;24301;54.332;48.386;2022-09-27T08:22:07;99104.53;;;18.80;33.46
38530;BME280;24301;54.332;48.386;2022-09-27T08:24:54;99108.53;;;18.50;33.87
38530;BME280;24301;54.332;48.386;2022-09-27T08:27:43;99095.84;;;17.95;34.89
38530;BME280;24301;54.332;48.386;2022-09-27T08:30:32;99113.13;;;17.85;35.53
38530;BME280;24301;54.332;48.386;2022-09-27T08:33:00;99108.41;;;17.71;36.29
38530;BME280;24301;54.332;48.386;2022-09-27T08:35:28;99114.44;;;17.74;37.03
38530;BME280;24301;54.332;48.386;2022-09-27T08:37:56;99116.13;;;17.77;37.23
38530;BME280;24301;54.332;48.386;2022-09-27T08:40:55;99124.81;;;17.80;37.55
38530;BME280;24301;54.332;48.386;2022-09-27T08:46:24;99113.19;;;17.40;38.30
38530;BME280;24301;54.332;48.386;2022-09-27T08:49:02;99099.84;;;16.95;39.24
38530;BME280;24301;54.332;48.386;2022-09-27T08:51:32;99101.13;;;16.61;40.10
38530;BME280;24301;54.332;48.386;2022-09-27T08:54:14;99100.44;;;16.32;40.49
38530;BME280;24301;54.332;48.386;2022-09-27T08:56:45;99103.63;;;16.17;41.07
38530;BME280;24301;54.332;48.386;2022-09-27T08:59:15;99100.84;;;16.20;41.54
38530;BME280;24301;54.332;48.386;2022-09-27T09:01:50;99093.22;;;16.36;41.36
38530;BME280;24301;54.332;48.386;2022-09-27T09:04:34;99084.00;;;16.46;41.33
38530;BME280;24301;54.332;48.386;2022-09-27T09:10:24;99095.84;;;16.61;40.65
38530;BME280;24301;54.332;48.386;2022-09-27T09:13:51;99090.84;;;16.28;40.96
38530;BME280;24301;54.332;48.386;2022-09-27T09:16:44;99087.44;;;15.99;41.52
38530;BME280;24301;54.332;48.386;2022-09-27T09:19:42;99091.22;;;15.92;41.78
38530;BME280;24301;54.332;48.386;2022-09-27T09:22:49;99087.72;;;16.17;41.84
38530;BME280;24301;54.332;48.386;2022-09-27T09:25:42;99084.41;;;16.35;41.99
38530;BME280;24301;54.332;48.386;2022-09-27T09:28:58;99088.66;;;16.40;41.49
38530;BME280;24301;54.332;48.386;2022-09-27T09:34:04;99099.00;;;16.22;41.95
38530;BME280;24301;54.332;48.386;2022-09-27T09:36:40;99091.88;;;16.24;41.95
38530;BME280;24301;54.332;48.386;2022-09-27T09:39:21;99109.81;;;16.41;42.02
38530;BME280;24301;54.332;48.386;2022-09-27T09:42:06;99099.91;;;16.22;42.11
38530;BME280;24301;54.332;48.386;2022-09-27T09:44:45;99099.78;;;16.00;42.56
38530;BME280;24301;54.332;48.386;2022-09-27T09:47:37;99098.25;;;15.93;42.80
38530;BME280;24301;54.332;48.386;2022-09-27T09:50:29;99110.59;;;15.67;43.30
38530;BME280;24301;54.332;48.386;2022-09-27T09:56:16;99115.69;;;15.18;44.77
38530;BME280;24301;54.332;48.386;2022-09-27T10:03:59;99115.13;;;15.08;44.74
38530;BME280;24301;54.332;48.386;2022-09-27T10:06:27;99116.13;;;15.04;45.06
38530;BME280;24301;54.332;48.386;2022-09-27T10:08:55;99126.06;;;14.96;45.50
38530;BME280;24301;54.332;48.386;2022-09-27T10:11:45;99126.97;;;14.94;45.53
38530;BME280;24301;54.332;48.386;2022-09-27T10:14:19;99110.19;;;14.96;45.60
38530;BME280;24301;54.332;48.386;2022-09-27T10:16:49;99124.22;;;14.98;45.71
38530;BME280;24301;54.332;48.386;2022-09-27T10:19:31;99121.56;;;14.68;46.50
38530;BME280;24301;54.332;48.386;2022-09-27T10:24:55;99098.81;;;13.97;47.82
38530;BME280;24301;54.332;48.386;2022-09-27T10:27:54;99108.19;;;14.09;47.55
38530;BME280;24301;54.332;48.386;2022-09-27T10:30:31;99105.97;;;14.27;47.49
38530;BME280;24301;54.332;48.386;2022-09-27T10:33:04;99115.16;;;14.45;47.27
38530;BME280;24301;54.332;48.386;2022-09-27T10:35:41;99121.75;;;14.61;47.02
38530;BME280;24301;54.332;48.386;2022-09-27T10:38:20;99124.13;;;14.72;46.79
38530;BME280;24301;54.332;48.386;2022-09-27T10:40:48;99120.47;;;14.76;46.98
38530;BME280;24301;54.332;48.386;2022-09-27T10:43:31;99115.66;;;14.89;47.10
38530;BME280;24301;54.332;48.386;2022-09-27T10:46:19;99120.03;;;14.90;46.78
38530;BME280;24301;54.332;48.386;2022-09-27T10:51:34;99129.53;;;14.98;46.99
38530;BME280;24301;54.332;48.386;2022-09-27T10:54:02;99130.19;;;15.06;47.06
38530;BME280;24301;54.332;48.386;2022-09-27T10:56:32;99120.56;;;14.73;47.59
38530;BME280;24301;54.332;48.386;2022-09-27T10:59:00;99125.72;;;14.45;48.12
38530;BME280;24301;54.332;48.386;2022-09-27T11:01:39;99126.72;;;14.41;48.52
38530;BME280;24301;54.332;48.386;2022-09-27T11:04:32;99128.94;;;14.56;48.04
38530;BME280;24301;54.332;48.386;2022-09-27T11:07:25;99122.88;;;14.52;48.22
38530;BME280;24301;54.332;48.386;2022-09-27T11:09:58;99129.25;;;14.45;48.01
38530;BME280;24301;54.332;48.386;2022-09-27T11:12:29;99127.03;;;14.30;48.46
38530;BME280;24301;54.332;48.386;2022-09-27T11:15:01;99120.56;;;14.07;49.07
38530;BME280;24301;54.332;48.386;2022-09-27T11:17:50;99119.94;;;13.97;50.02
38530;BME280;24301;54.332;48.386;2022-09-27T11:25:55;99126.66;;;13.76;50.57
38530;BME280;24301;54.332;48.386;2022-09-27T11:28:46;99117.19;;;13.67;50.72
38530;BME280;24301;54.332;48.386;2022-09-27T11:37:15;99128.13;;;13.14;53.08
38530;BME280;24301;54.332;48.386;2022-09-27T11:42:27;99111.97;;;13.26;52.91
38530;BME280;24301;54.332;48.386;2022-09-27T11:47:56;99118.91;;;13.32;52.28
38530;BME280;24301;54.332;48.386;2022-09-27T11:56:10;99116.44;;;13.22;51.92
38530;BME280;24301;54.332;48.386;2022-09-27T12:04:56;99119.31;;;13.53;51.09
38530;BME280;24301;54.332;48.386;2022-09-27T12:07:52;99117.47;;;13.56;51.16
38530;BME280;24301;54.332;48.386;2022-09-27T12:10:21;99120.97;;;13.57;50.87
38530;BME280;24301;54.332;48.386;2022-09-27T12:12:51;99119.25;;;13.56;50.88
38530;BME280;24301;54.332;48.386;2022-09-27T12:15:28;99106.16;;;13.51;50.67
38530;BME280;24301;54.332;48.386;2022-09-27T12:20:48;99114.94;;;13.52;50.91
38530;BME280;24301;54.332;48.386;2022-09-27T12:23:21;99110.53;;;13.50;51.06
38530;BME280;24301;54.332;48.386;2022-09-27T12:26:17;99121.16;;;13.49;51.32
38530;BME280;24301;54.332;48.386;2022-09-27T12:28:50;99107.19;;;13.42;51.46
38530;BME280;24301;54.332;48.386;2022-09-27T12:35:12;99128.28;;;13.45;52.64
38530;BME280;24301;54.332;48.386;2022-09-27T12:42:40;99117.09;;;12.94;53.18
38530;BME280;24301;54.332;48.386;2022-09-27T12:51:09;99125.81;;;12.98;52.97
38530;BME280;24301;54.332;48.386;2022-09-27T13:12:05;99119.75;;;12.52;55.65
38530;BME280;24301;54.332;48.386;2022-09-27T13:15:11;99109.50;;;12.38;56.92
38530;BME280;24301;54.332;48.386;2022-09-27T13:17:53;99113.00;;;12.37;56.65
38530;BME280;24301;54.332;48.386;2022-09-27T13:20:53;99128.78;;;12.39;56.40
38530;BME280;24301;54.332;48.386;2022-09-27T13:26:42;99109.50;;;12.36;58.02
38530;BME280;24301;54.332;48.386;2022-09-27T13:29:29;99120.88;;;12.39;57.83
38530;BME280;24301;54.332;48.386;2022-09-27T13:32:12;99125.41;;;12.32;58.22
38530;BME280;24301;54.332;48.386;2022-09-27T13:35:23;99128.06;;;12.30;58.12
38530;BME280;24301;54.332;48.386;2022-09-27T13:37:57;99123.78;;;12.26;58.07
38530;BME280;24301;54.332;48.386;2022-09-27T13:40:36;99129.97;;;12.22;58.12
38530;BME280;24301;54.332;48.386;2022-09-27T13:49:36;99123.31;;;12.02;58.43
38530;BME280;24301;54.332;48.386;2022-09-27T13:52:32;99113.69;;;11.98;58.92
38530;BME280;24301;54.332;48.386;2022-09-27T14:00:49;99141.94;;;11.90;59.07
38530;BME280;24301;54.332;48.386;2022-09-27T14:03:24;99142.94;;;11.83;59.70
38530;BME280;24301;54.332;48.386;2022-09-27T14:05:56;99130.75;;;11.77;59.91
38530;BME280;24301;54.332;48.386;2022-09-27T14:08:53;99139.53;;;11.76;60.43
38530;BME280;24301;54.332;48.386;2022-09-27T14:11:32;99133.50;;;11.69;60.31
38530;BME280;24301;54.332;48.386;2022-09-27T14:13:59;99124.88;;;11.61;60.23
38530;BME280;24301;54.332;48.386;2022-09-27T14:16:35;99136.31;;;11.58;60.46
38530;BME280;24301;54.332;48.386;2022-09-27T14:19:13;99132.81;;;11.56;59.95
38530;BME280;24301;54.332;48.386;2022-09-27T14:21:40;99128.41;;;11.58;59.84
38530;BME280;24301;54.332;48.386;2022-09-27T14:27:23;99133.78;;;11.54;60.30
38530;BME280;24301;54.332;48.386;2022-09-27T14:29:59;99134.72;;;11.49;60.03
38530;BME280;24301;54.332;48.386;2022-09-27T14:32:32;99142.63;;;11.46;60.48
38530;BME280;24301;54.332;48.386;2022-09-27T14:35:21;99135.63;;;11.45;60.29
38530;BME280;24301;54.332;48.386;2022-09-27T14:38:12;99145.25;;;11.48;60.65
38530;BME280;24301;54.332;48.386;2022-09-27T14:40:54;99142.56;;;11.51;60.83
38530;BME280;24301;54.332;48.386;2022-09-27T14:43:22;99147.88;;;11.49;60.67
38530;BME280;24301;54.332;48.386;2022-09-27T14:45:51;99146.09;;;11.52;61.20
38530;BME280;24301;54.332;48.386;2022-09-27T14:48:36;99141.56;;;11.58;61.34
38530;BME280;24301;54.332;48.386;2022-09-27T14:53:43;99143.28;;;11.61;61.24
38530;BME280;24301;54.332;48.386;2022-09-27T14:56:19;99144.13;;;11.64;60.75
38530;BME280;24301;54.332;48.386;2022-09-27T14:58:50;99145.03;;;11.63;60.76
38530;BME280;24301;54.332;48.386;2022-09-27T15:01:18;99148.56;;;11.62;61.69
38530;BME280;24301;54.332;48.386;2022-09-27T15:03:46;99156.44;;;11.62;62.27
38530;BME280;24301;54.332;48.386;2022-09-27T15:06:15;99158.19;;;11.62;62.21
38530;BME280;24301;54.332;48.386;2022-09-27T15:08:41;99152.97;;;11.59;62.13
38530;BME280;24301;54.332;48.386;2022-09-27T15:11:12;99159.09;;;11.59;62.70
38530;BME280;24301;54.332;48.386;2022-09-27T15:13:39;99121.63;;;11.43;62.64
38530;BME280;24301;54.332;48.386;2022-09-27T15:16:15;99159.94;;;11.63;63.24
38530;BME280;24301;54.332;48.386;2022-09-27T15:19:01;99152.09;;;11.60;63.24
38530;BME280;24301;54.332;48.386;2022-09-27T15:21:34;99148.56;;;11.59;62.69
38530;BME280;24301;54.332;48.386;2022-09-27T15:24:01;99151.28;;;11.55;63.00
38530;BME280;24301;54.332;48.386;2022-09-27T15:26:42;99155.56;;;11.60;63.29
38530;BME280;24301;54.332;48.386;2022-09-27T15:29:21;99154.69;;;11.61;63.25
38530;BME280;24301;54.332;48.386;2022-09-27T15:32:21;99159.06;;;11.62;63.53
38530;BME280;24301;54.332;48.386;2022-09-27T15:34:48;99155.56;;;11.60;62.92
38530;BME280;24301;54.332;48.386;2022-09-27T15:39:52;99151.25;;;11.58;62.91
38530;BME280;24301;54.332;48.386;2022-09-27T15:42:18;99143.31;;;11.59;63.12
38530;BME280;24301;54.332;48.386;2022-09-27T15:44:53;99143.31;;;11.59;63.04
38530;BME280;24301;54.332;48.386;2022-09-27T15:52:52;99142.50;;;11.56;63.57
38530;BME280;24301;54.332;48.386;2022-09-27T15:55:27;99144.28;;;11.54;63.99
38530;BME280;24301;54.332;48.386;2022-09-27T16:00:27;99141.72;;;11.50;63.19
38530;BME280;24301;54.332;48.386;2022-09-27T16:02:54;99141.78;;;11.46;62.93
38530;BME280;24301;54.332;48.386;2022-09-27T16:05:20;99145.31;;;11.45;62.86
38530;BME280;24301;54.332;48.386;2022-09-27T16:07:49;99149.69;;;11.44;63.14
38530;BME280;24301;54.332;48.386;2022-09-27T16:10:26;99135.63;;;11.45;62.73
38530;BME280;24301;54.332;48.386;2022-09-27T16:12:54;99135.63;;;11.45;62.58
38530;BME280;24301;54.332;48.386;2022-09-27T16:15:20;99129.50;;;11.45;62.40
38530;BME280;24301;54.332;48.386;2022-09-27T16:17:45;99133.03;;;11.44;62.62
38530;BME280;24301;54.332;48.386;2022-09-27T16:20:20;99130.41;;;11.42;61.93
38530;BME280;24301;54.332;48.386;2022-09-27T16:22:48;99134.00;;;11.38;62.16
38530;BME280;24301;54.332;48.386;2022-09-27T16:25:16;99129.63;;;11.39;62.82
38530;BME280;24301;54.332;48.386;2022-09-27T16:27:43;99130.47;;;11.39;62.58
38530;BME280;24301;54.332;48.386;2022-09-27T16:30:09;99135.69;;;11.42;63.22